KPKB/PKB METAR and TAF weather

Enter ICAO airport designator
Station Type Date Time Source
KPKB METAR 2019/08/17 10:53 UTC NOAA

KPKB 171053Z 000000KT 4SM BR CLR 17/17 A3002 RMK A02 SLP159 T01720167 RTX


Station Type Date Time Source
KPKB Decoded METAR 2019/08/17 10:53 UTC NOAA

Station name not available
Aug 17, 2019 - 06:53 AM EDT / 2019.08.17 1053 UTC
Wind: Calm:0
Visibility: 4 mile(s):0
Sky conditions: clear
Weather: mist
Temperature: 63.0 F (17.2 C)
Dew Point: 62.1 F (16.7 C)
Relative Humidity: 96%
Pressure (altimeter): 30.02 in. Hg (1016 hPa)
ob: KPKB 171053Z 000000KT 4SM BR CLR 17/17 A3002 RMK A02 SLP159 T01720167 RTX
cycle: 11

Station Type Date Time Source
KPKB TAF 2019/08/17 12:22 UTC NOAA

TAF KPKB 171120Z 1712/1812 00000KT P6SM FEW100
FM171700 VRB03KT P6SM SCT050
FM180200 00000KT P6SM SCT150

Example: see airport list